Time;durP1;ratioP1;P1;durP2;ratioP2;P2;SDS_P1;SDS_P2;PMS_P1;PMS_P2;Temp;Humidity;BMP_temperature;BMP_pressure;BME280_temperature;BME280_humidity;BME280_pressure;Samples;Min_cycle;Max_cycle;Signal;HPM_P1;HPM_P2
2021/12/14 00:01:15;;;;;;;6.20;3.60;;;11.50;61.80;;;;;;6122201;23;19994;-53
2021/12/14 00:03:44;;;;;;;4.93;3.33;;;11.50;61.90;;;;;;6116357;23;19994;-55
2021/12/14 00:06:13;;;;;;;5.70;3.35;;;11.50;61.90;;;;;;6115829;23;20439;-55
2021/12/14 00:08:57;;;;;;;6.35;3.70;;;11.50;62.00;;;;;;6114220;23;20343;-54
2021/12/14 00:16:49;;;;;;;7.93;3.17;;;11.50;61.90;;;;;;6122777;23;20451;-57
2021/12/14 00:19:17;;;;;;;5.07;3.67;;;11.50;61.90;;;;;;6114070;23;20071;-55
2021/12/14 00:21:50;;;;;;;6.97;3.58;;;11.50;62.10;;;;;;6114997;23;20006;-57
2021/12/14 00:24:16;;;;;;;5.28;3.20;;;11.50;62.10;;;;;;6116186;23;20018;-52
2021/12/14 00:26:51;;;;;;;8.13;3.65;;;11.50;62.20;;;;;;6115549;23;20017;-54
2021/12/14 00:29:22;;;;;;;5.90;3.60;;;11.50;62.20;;;;;;6125772;23;20013;-57
2021/12/14 00:31:49;;;;;;;5.28;3.65;;;11.50;62.20;;;;;;6113679;23;20009;-54
2021/12/14 00:34:23;;;;;;;5.35;3.85;;;11.50;62.30;;;;;;6117868;23;20561;-55
2021/12/14 00:36:52;;;;;;;6.07;3.88;;;11.50;62.30;;;;;;6116111;23;20013;-55
2021/12/14 00:39:18;;;;;;;7.60;4.55;;;11.50;62.40;;;;;;6113403;23;20005;-55
2021/12/14 00:41:45;;;;;;;6.13;3.60;;;11.50;62.40;;;;;;6114827;23;20013;-55
2021/12/14 00:44:12;;;;;;;5.45;3.90;;;11.50;62.40;;;;;;6117809;23;19998;-54
2021/12/14 00:46:38;;;;;;;6.15;4.28;;;11.50;62.50;;;;;;6115539;23;20002;-56
2021/12/14 00:49:06;;;;;;;5.90;4.32;;;11.50;62.50;;;;;;6116020;23;20002;-54
2021/12/14 00:51:33;;;;;;;6.38;4.40;;;11.50;62.50;;;;;;6115778;23;20009;-53
2021/12/14 00:54:03;;;;;;;8.05;4.40;;;11.50;62.40;;;;;;6117730;23;20013;-55
2021/12/14 00:56:33;;;;;;;6.90;4.47;;;11.50;62.40;;;;;;6116029;23;20002;-54
2021/12/14 00:59:01;;;;;;;6.45;3.85;;;11.50;62.40;;;;;;6115572;23;20002;-54
2021/12/14 01:01:33;;;;;;;6.85;4.68;;;11.50;62.40;;;;;;6115495;23;20002;-55
2021/12/14 01:04:05;;;;;;;7.32;4.88;;;11.50;62.40;;;;;;6091551;23;20312;-54
2021/12/14 01:06:37;;;;;;;6.95;4.80;;;11.50;62.50;;;;;;6121539;23;20001;-53
2021/12/14 01:09:06;;;;;;;6.95;4.97;;;11.50;62.60;;;;;;6119681;23;20014;-55
2021/12/14 01:11:40;;;;;;;5.97;4.57;;;11.50;62.50;;;;;;6116445;23;20048;-51
2021/12/14 01:14:16;;;;;;;9.80;5.43;;;11.50;62.60;;;;;;6125559;23;20013;-55
2021/12/14 01:17:08;;;;;;;7.60;4.95;;;11.50;62.70;;;;;;6123760;23;20021;-55
2021/12/14 01:19:37;;;;;;;9.93;5.13;;;11.50;62.60;;;;;;6115814;23;20017;-55
2021/12/14 01:27:13;;;;;;;7.57;5.63;;;11.50;62.70;;;;;;6125747;23;20020;-57
2021/12/14 01:29:40;;;;;;;10.73;5.68;;;11.50;62.80;;;;;;6116357;23;20009;-54
2021/12/14 01:32:08;;;;;;;8.25;5.55;;;11.50;62.80;;;;;;6115133;23;20317;-56
2021/12/14 01:34:36;;;;;;;7.32;5.03;;;11.50;62.80;;;;;;6117497;23;20025;-54
2021/12/14 01:37:12;;;;;;;7.20;5.07;;;11.50;62.90;;;;;;6113533;23;20002;-57
2021/12/14 01:42:35;;;;;;;9.32;5.70;;;11.50;62.90;;;;;;6124637;23;20331;-53
2021/12/14 01:45:20;;;;;;;8.55;5.90;;;11.50;62.90;;;;;;6117302;23;20316;-52
2021/12/14 01:47:52;;;;;;;8.75;5.82;;;11.50;62.90;;;;;;6124071;23;20021;-54
2021/12/14 01:50:47;;;;;;;10.05;5.50;;;11.50;62.90;;;;;;6126371;23;20608;-55
2021/12/14 01:53:15;;;;;;;8.63;4.88;;;11.50;62.80;;;;;;6115542;23;20013;-57
2021/12/14 01:55:50;;;;;;;8.00;4.97;;;11.50;62.80;;;;;;6115288;23;20335;-56
2021/12/14 01:58:17;;;;;;;8.93;5.28;;;11.50;62.90;;;;;;6113792;23;20009;-57
2021/12/14 02:01:00;;;;;;;6.72;5.00;;;11.50;62.90;;;;;;6115221;23;20016;-53
2021/12/14 02:03:52;;;;;;;9.25;5.43;;;11.50;62.90;;;;;;6125353;23;20436;-55
2021/12/14 02:06:23;;;;;;;6.93;5.07;;;11.50;62.90;;;;;;6121918;23;20006;-55
2021/12/14 02:08:59;;;;;;;8.88;4.70;;;11.50;62.90;;;;;;6114318;23;20040;-54
2021/12/14 02:11:30;;;;;;;8.65;5.38;;;11.50;62.90;;;;;;6124954;23;20025;-54
2021/12/14 02:13:56;;;;;;;6.82;4.53;;;11.50;63.00;;;;;;6125830;23;20009;-54
2021/12/14 02:16:23;;;;;;;6.72;4.50;;;11.50;63.00;;;;;;6113716;23;20458;-54
2021/12/14 02:18:53;;;;;;;8.85;4.82;;;11.50;63.10;;;;;;6114002;23;20002;-53
2021/12/14 02:21:21;;;;;;;6.95;4.93;;;11.50;63.10;;;;;;6115152;23;20002;-57
2021/12/14 02:23:51;;;;;;;7.00;4.68;;;11.50;63.10;;;;;;6115882;23;20006;-57
2021/12/14 02:26:22;;;;;;;7.10;4.47;;;11.50;63.10;;;;;;6113069;23;20343;-57
2021/12/14 02:28:51;;;;;;;9.52;5.13;;;11.50;63.00;;;;;;6125223;23;20017;-55
2021/12/14 02:31:20;;;;;;;9.00;4.45;;;11.50;63.00;;;;;;6113984;23;20002;-56
2021/12/14 02:33:50;;;;;;;9.43;4.60;;;11.50;62.90;;;;;;6116300;23;20460;-56
2021/12/14 02:36:27;;;;;;;8.15;4.80;;;11.50;62.90;;;;;;6114084;23;20021;-55
2021/12/14 02:39:06;;;;;;;7.45;4.38;;;11.50;63.00;;;;;;6109789;23;20014;-57
2021/12/14 02:41:33;;;;;;;6.65;4.50;;;11.50;63.00;;;;;;6113134;23;20006;-57
2021/12/14 02:44:01;;;;;;;6.25;4.40;;;11.50;63.00;;;;;;6115134;23;20002;-55
2021/12/14 02:46:37;;;;;;;5.93;4.35;;;11.50;63.10;;;;;;6114530;23;20002;-54
2021/12/14 02:49:07;;;;;;;7.90;4.75;;;11.50;63.10;;;;;;6123138;23;20331;-56
2021/12/14 02:51:40;;;;;;;8.05;4.10;;;11.50;63.10;;;;;;6115870;23;20321;-50
2021/12/14 02:54:11;;;;;;;8.05;4.30;;;11.50;63.10;;;;;;6125741;23;20295;-57
2021/12/14 02:56:40;;;;;;;7.78;4.45;;;11.50;63.10;;;;;;6124392;23;20006;-53
2021/12/14 02:59:14;;;;;;;6.18;3.83;;;11.50;63.10;;;;;;6113727;23;20013;-54
2021/12/14 03:01:43;;;;;;;6.75;3.90;;;11.50;63.10;;;;;;6113653;23;20444;-53
2021/12/14 03:04:10;;;;;;;7.93;3.92;;;11.50;63.10;;;;;;6113597;23;20013;-53
2021/12/14 03:06:45;;;;;;;5.93;3.63;;;11.50;63.10;;;;;;6116179;23;20005;-52
2021/12/14 03:09:36;;;;;;;8.23;3.90;;;11.50;63.10;;;;;;6113140;23;20029;-53
2021/12/14 03:12:12;;;;;;;7.22;4.72;;;11.50;63.10;;;;;;6125150;23;19998;-54
2021/12/14 03:14:46;;;;;;;10.70;4.82;;;11.50;63.10;;;;;;6124623;23;20443;-55
2021/12/14 03:17:12;;;;;;;8.98;4.43;;;11.50;63.10;;;;;;6110798;23;20009;-54
2021/12/14 03:19:38;;;;;;;10.75;5.15;;;11.50;63.20;;;;;;6113951;23;20006;-53
2021/12/14 03:22:32;;;;;;;6.05;4.18;;;11.50;63.10;;;;;;6115674;23;20014;-54
2021/12/14 03:24:59;;;;;;;8.02;4.53;;;11.50;63.20;;;;;;6123209;23;20431;-51
2021/12/14 03:27:26;;;;;;;9.55;5.18;;;11.50;63.20;;;;;;6115516;23;20016;-57
2021/12/14 03:29:53;;;;;;;8.65;4.90;;;11.50;63.10;;;;;;6115134;23;20017;-56
2021/12/14 03:32:19;;;;;;;7.38;4.93;;;11.50;63.10;;;;;;6111185;23;20001;-57
2021/12/14 03:34:46;;;;;;;7.45;5.00;;;11.50;63.10;;;;;;6113723;23;20010;-52
2021/12/14 03:37:16;;;;;;;7.32;4.95;;;11.50;63.10;;;;;;6114784;23;20029;-55
2021/12/14 03:39:47;;;;;;;7.78;4.43;;;11.50;63.10;;;;;;6113506;23;20010;-53
2021/12/14 03:42:25;;;;;;;7.00;4.65;;;11.50;63.10;;;;;;6115546;23;20021;-55
2021/12/14 03:44:56;;;;;;;7.45;5.07;;;11.50;63.00;;;;;;6123438;23;20006;-55
2021/12/14 03:47:44;;;;;;;8.13;4.85;;;11.50;63.00;;;;;;6111499;23;20006;-54
2021/12/14 03:50:24;;;;;;;7.20;4.90;;;11.50;63.10;;;;;;6125497;23;20006;-54
2021/12/14 03:52:50;;;;;;;9.20;5.85;;;11.50;63.00;;;;;;6125585;23;20020;-54
2021/12/14 03:55:30;;;;;;;9.07;5.63;;;11.50;63.00;;;;;;6115174;23;20009;-56
2021/12/14 03:57:57;;;;;;;7.28;5.20;;;11.50;63.10;;;;;;6124674;23;20344;-56
2021/12/14 04:00:38;;;;;;;11.10;5.40;;;11.50;63.10;;;;;;6115676;23;20002;-55
2021/12/14 04:03:10;;;;;;;9.57;5.40;;;11.50;63.10;;;;;;6117497;23;20014;-57
2021/12/14 04:05:40;;;;;;;8.38;5.32;;;11.50;63.00;;;;;;6125841;23;20006;-52
2021/12/14 04:08:07;;;;;;;10.13;5.22;;;11.50;63.10;;;;;;6116781;23;20006;-57
2021/12/14 04:10:37;;;;;;;8.43;5.03;;;11.50;63.20;;;;;;6117063;23;20025;-51
2021/12/14 04:13:04;;;;;;;8.73;5.80;;;11.50;63.20;;;;;;6117353;23;20002;-54
2021/12/14 04:15:30;;;;;;;8.60;6.03;;;11.50;63.20;;;;;;6117015;23;19998;-55
2021/12/14 04:17:57;;;;;;;10.07;5.97;;;11.50;63.20;;;;;;6113985;23;20451;-55
2021/12/14 04:20:28;;;;;;;11.98;6.47;;;11.50;63.20;;;;;;6115631;23;20005;-55
2021/12/14 04:22:55;;;;;;;8.18;5.43;;;11.50;63.20;;;;;;6127012;23;20002;-55
2021/12/14 04:25:27;;;;;;;9.60;6.25;;;11.50;63.90;;;;;;6117835;23;19998;-55
2021/12/14 04:27:54;;;;;;;9.65;5.80;;;11.50;63.20;;;;;;6126179;23;20002;-57
2021/12/14 04:30:25;;;;;;;10.98;7.05;;;11.50;63.20;;;;;;6116525;23;20010;-56
2021/12/14 04:32:56;;;;;;;10.52;6.18;;;11.50;63.20;;;;;;6125323;23;20621;-52
2021/12/14 04:35:23;;;;;;;11.75;7.43;;;11.50;63.20;;;;;;6117328;23;20002;-54
2021/12/14 04:37:53;;;;;;;9.70;6.15;;;11.50;63.10;;;;;;6115892;23;20002;-53
2021/12/14 04:51:59;;;;;;;10.18;5.95;;;11.50;63.00;;;;;;6126896;23;20025;-54
2021/12/14 04:54:52;;;;;;;12.15;7.03;;;11.50;63.00;;;;;;6114620;23;20009;-55
2021/12/14 04:57:25;;;;;;;13.00;7.30;;;11.50;62.90;;;;;;6117229;23;20006;-53
2021/12/14 04:59:56;;;;;;;11.68;7.35;;;11.50;62.90;;;;;;6123680;23;20044;-53
2021/12/14 05:02:29;;;;;;;14.27;7.35;;;11.50;62.90;;;;;;6123570;23;20005;-55
2021/12/14 05:04:57;;;;;;;13.13;8.23;;;11.50;62.90;;;;;;6113102;23;20014;-56
2021/12/14 05:09:52;;;;;;;13.60;8.43;;;11.50;62.90;;;;;;6125866;23;20032;-54
2021/12/14 05:12:23;;;;;;;14.68;8.00;;;11.50;62.90;;;;;;6117398;23;20754;-53
2021/12/14 05:14:50;;;;;;;15.45;8.73;;;11.50;62.80;;;;;;6113291;23;20012;-56
2021/12/14 05:17:24;;;;;;;15.38;8.35;;;11.50;62.80;;;;;;6110408;23;20218;-54
2021/12/14 05:19:52;;;;;;;15.10;8.13;;;11.50;62.80;;;;;;6113084;23;20013;-56
2021/12/14 05:22:23;;;;;;;16.92;8.70;;;11.50;62.70;;;;;;6114524;23;20010;-53
2021/12/14 05:25:03;;;;;;;14.07;8.63;;;11.50;62.60;;;;;;6125369;23;20013;-54
2021/12/14 05:27:46;;;;;;;16.30;9.65;;;11.50;62.50;;;;;;6115950;23;20010;-56
2021/12/14 05:30:18;;;;;;;14.73;8.80;;;11.50;62.40;;;;;;6122719;23;19998;-54
2021/12/14 05:32:45;;;;;;;14.05;8.38;;;11.50;62.20;;;;;;6113998;23;20009;-52
2021/12/14 05:35:15;;;;;;;15.90;9.68;;;11.50;62.30;;;;;;6115890;23;20001;-55
2021/12/14 05:37:49;;;;;;;18.60;10.85;;;11.50;62.30;;;;;;6115269;23;20002;-56
2021/12/14 05:40:40;;;;;;;19.48;10.90;;;11.50;63.00;;;;;;6125290;23;20002;-53
2021/12/14 05:43:12;;;;;;;17.17;10.77;;;11.50;62.30;;;;;;6115071;23;20428;-53
2021/12/14 05:45:53;;;;;;;18.92;11.43;;;11.40;62.40;;;;;;6124351;23;20497;-55
2021/12/14 05:48:25;;;;;;;17.92;11.52;;;11.50;62.60;;;;;;6122975;23;20010;-51
2021/12/14 05:50:55;;;;;;;20.85;12.07;;;11.50;62.60;;;;;;6115789;23;20002;-54
2021/12/14 05:53:31;;;;;;;18.52;11.30;;;11.40;62.60;;;;;;6115169;23;20331;-53
2021/12/14 05:56:01;;;;;;;20.70;11.48;;;11.40;62.60;;;;;;6125564;23;20006;-55
2021/12/14 05:58:28;;;;;;;20.67;11.38;;;11.40;62.60;;;;;;6115988;23;20416;-54
2021/12/14 06:01:09;;;;;;;23.65;13.18;;;11.40;62.60;;;;;;6113388;23;20066;-54
2021/12/14 06:03:41;;;;;;;21.58;12.23;;;11.40;62.50;;;;;;6125354;23;20013;-53
2021/12/14 06:06:19;;;;;;;20.58;12.75;;;11.50;62.60;;;;;;6114198;23;20339;-57
2021/12/14 06:08:46;;;;;;;23.27;12.80;;;11.40;62.60;;;;;;6120996;23;20332;-52
2021/12/14 06:11:24;;;;;;;21.83;12.00;;;11.50;62.60;;;;;;6114946;23;20006;-53
2021/12/14 06:13:50;;;;;;;21.45;12.10;;;11.40;62.50;;;;;;6123967;23;20002;-55
2021/12/14 06:16:27;;;;;;;22.48;13.10;;;11.50;62.60;;;;;;6112848;23;19998;-56
2021/12/14 06:19:12;;;;;;;24.42;13.43;;;11.40;62.60;;;;;;6116273;23;19998;-53
2021/12/14 06:21:38;;;;;;;24.98;12.85;;;11.40;62.60;;;;;;6125511;23;20009;-57
2021/12/14 06:24:07;;;;;;;25.60;12.35;;;11.40;62.70;;;;;;6115328;23;20013;-51
2021/12/14 06:26:44;;;;;;;23.30;13.20;;;11.40;62.60;;;;;;6114161;23;20021;-55
2021/12/14 06:29:14;;;;;;;23.33;13.32;;;11.40;62.70;;;;;;6124730;23;20009;-52
2021/12/14 06:31:41;;;;;;;25.15;11.77;;;11.40;62.80;;;;;;6113455;23;20017;-54
2021/12/14 06:34:12;;;;;;;23.05;12.60;;;11.40;63.00;;;;;;6116205;23;20010;-56
2021/12/14 06:36:48;;;;;;;21.63;12.43;;;11.40;63.10;;;;;;6103873;23;20229;-54
2021/12/14 06:39:16;;;;;;;23.60;13.15;;;11.40;63.00;;;;;;6124707;23;19998;-55
2021/12/14 06:41:42;;;;;;;25.80;13.38;;;11.40;63.00;;;;;;6115485;23;20009;-52
2021/12/14 06:44:09;;;;;;;24.40;12.15;;;11.40;63.10;;;;;;6114326;23;20435;-55
2021/12/14 06:46:38;;;;;;;27.77;13.02;;;11.40;63.20;;;;;;6114172;23;20017;-54
2021/12/14 06:49:11;;;;;;;26.30;13.80;;;11.40;63.10;;;;;;6114804;23;20010;-54
2021/12/14 06:51:44;;;;;;;23.38;13.27;;;11.40;63.10;;;;;;6115675;23;20521;-54
2021/12/14 06:54:13;;;;;;;26.45;14.50;;;11.40;63.10;;;;;;6124523;23;20337;-55
2021/12/14 06:56:40;;;;;;;23.67;13.02;;;11.40;62.90;;;;;;6113821;23;20676;-53
2021/12/14 06:59:10;;;;;;;21.42;12.48;;;11.40;62.90;;;;;;6112961;23;20009;-53
2021/12/14 07:01:49;;;;;;;23.45;12.75;;;11.40;63.00;;;;;;6112858;23;20435;-53
2021/12/14 07:04:19;;;;;;;24.35;12.35;;;11.40;62.90;;;;;;6124612;23;20821;-52
2021/12/14 07:06:51;;;;;;;23.85;12.77;;;11.40;62.90;;;;;;6114934;23;20009;-55
2021/12/14 07:09:42;;;;;;;23.40;12.38;;;11.40;63.00;;;;;;6112328;23;20029;-54
2021/12/14 07:12:43;;;;;;;23.52;12.73;;;11.40;63.00;;;;;;6113687;23;20010;-53
2021/12/14 07:15:20;;;;;;;24.38;11.38;;;11.40;62.80;;;;;;6082297;23;19998;-53
2021/12/14 07:17:54;;;;;;;24.75;12.38;;;11.40;62.70;;;;;;6111304;23;20017;-56
2021/12/14 07:20:22;;;;;;;21.17;11.20;;;11.40;62.70;;;;;;6113183;23;20020;-53
2021/12/14 07:22:52;;;;;;;21.08;12.10;;;11.30;62.70;;;;;;6115343;23;20006;-52
2021/12/14 07:25:35;;;;;;;21.48;11.68;;;11.30;62.60;;;;;;6115896;23;20402;-54
2021/12/14 07:28:13;;;;;;;21.42;11.35;;;11.30;62.70;;;;;;6135921;23;20025;-52
2021/12/14 07:30:56;;;;;;;20.73;11.57;;;11.30;62.70;;;;;;6111639;23;20006;-56
2021/12/14 07:33:28;;;;;;;19.02;10.50;;;11.30;62.70;;;;;;6123867;23;19998;-53
2021/12/14 07:36:07;;;;;;;22.48;12.38;;;11.30;62.60;;;;;;6111959;23;20326;-52
2021/12/14 07:38:40;;;;;;;20.90;11.63;;;11.30;62.70;;;;;;6124404;23;20316;-54
2021/12/14 07:41:15;;;;;;;23.00;10.77;;;11.30;62.60;;;;;;6112572;23;20347;-56
2021/12/14 07:43:47;;;;;;;19.75;10.98;;;11.30;62.60;;;;;;6124629;23;20331;-55
2021/12/14 07:46:18;;;;;;;19.73;10.68;;;11.30;62.70;;;;;;6113760;23;20006;-55
2021/12/14 07:48:49;;;;;;;19.27;10.13;;;11.30;62.70;;;;;;6111161;23;20020;-55
2021/12/14 07:51:17;;;;;;;20.35;9.23;;;11.30;62.80;;;;;;6123893;23;19998;-54
2021/12/14 07:54:21;;;;;;;17.27;9.35;;;11.20;62.60;;;;;;6115253;23;20006;-54
2021/12/14 07:56:52;;;;;;;15.45;8.07;;;11.20;62.80;;;;;;6110171;23;20447;-55
2021/12/14 07:59:32;;;;;;;13.13;8.15;;;11.20;62.90;;;;;;6124384;23;20399;-51
2021/12/14 08:02:13;;;;;;;18.60;8.80;;;11.20;63.10;;;;;;6122782;23;20242;-54
2021/12/14 08:04:46;;;;;;;14.38;8.13;;;11.20;63.30;;;;;;6124150;23;20701;-53
2021/12/14 08:07:26;;;;;;;15.75;7.88;;;11.10;63.30;;;;;;6112507;23;20024;-54
2021/12/14 08:09:54;;;;;;;15.60;7.82;;;11.10;63.60;;;;;;6113139;23;20224;-54
2021/12/14 08:12:31;;;;;;;18.90;9.25;;;11.00;63.80;;;;;;6112551;23;20018;-53
2021/12/14 08:15:19;;;;;;;14.00;8.30;;;11.00;64.10;;;;;;6121530;23;20419;-52
2021/12/14 08:17:56;;;;;;;12.75;7.00;;;11.00;64.30;;;;;;6118833;23;20009;-53
2021/12/14 08:20:23;;;;;;;12.70;6.47;;;11.00;64.20;;;;;;6111390;23;20014;-53
2021/12/14 08:22:50;;;;;;;12.57;6.20;;;11.00;64.10;;;;;;6112783;23;20063;-52
2021/12/14 08:25:25;;;;;;;10.02;6.47;;;11.00;64.10;;;;;;6112689;23;20021;-53
2021/12/14 08:28:05;;;;;;;12.98;7.75;;;10.90;64.20;;;;;;6123465;23;20806;-53
2021/12/14 08:30:34;;;;;;;12.55;7.90;;;10.90;64.30;;;;;;6124159;23;20336;-56
2021/12/14 08:33:01;;;;;;;12.23;7.22;;;10.90;64.30;;;;;;6110863;23;20013;-52
2021/12/14 08:35:28;;;;;;;14.65;8.48;;;10.90;64.40;;;;;;6114207;23;20145;-54
2021/12/14 08:37:58;;;;;;;16.50;9.05;;;10.90;64.40;;;;;;6112818;23;20327;-53
2021/12/14 08:40:38;;;;;;;15.45;8.57;;;10.90;64.60;;;;;;6113731;23;20168;-53
2021/12/14 08:43:13;;;;;;;12.93;7.75;;;10.90;64.60;;;;;;6112336;23;20013;-55
2021/12/14 08:45:43;;;;;;;15.05;9.05;;;10.90;64.60;;;;;;6113608;23;20002;-56
2021/12/14 08:48:29;;;;;;;13.63;7.78;;;11.00;64.60;;;;;;6114376;23;20228;-51
2021/12/14 08:51:02;;;;;;;20.25;8.02;;;10.90;64.70;;;;;;6125201;23;20010;-53
2021/12/14 08:53:32;;;;;;;13.95;7.65;;;10.90;64.70;;;;;;6115594;23;20017;-55
2021/12/14 08:56:02;;;;;;;17.90;8.65;;;10.90;64.70;;;;;;6114126;23;20423;-53
2021/12/14 08:58:29;;;;;;;13.60;8.00;;;10.90;64.70;;;;;;6113063;23;20443;-55
2021/12/14 09:01:00;;;;;;;17.27;7.68;;;10.90;64.70;;;;;;6115216;23;20014;-51
2021/12/14 09:03:34;;;;;;;13.00;7.75;;;10.90;64.80;;;;;;6137096;23;20203;-54
2021/12/14 09:06:10;;;;;;;15.85;7.82;;;10.90;64.80;;;;;;6124398;23;20009;-54
2021/12/14 09:08:39;;;;;;;13.65;8.00;;;11.00;64.70;;;;;;6112164;23;20589;-57
2021/12/14 09:11:07;;;;;;;11.68;7.60;;;11.00;64.60;;;;;;6124788;23;20005;-51
2021/12/14 09:13:33;;;;;;;13.95;7.47;;;11.00;64.60;;;;;;6115854;23;20006;-49
2021/12/14 09:16:11;;;;;;;14.40;7.78;;;11.00;64.50;;;;;;6115454;23;20009;-56
2021/12/14 09:18:45;;;;;;;12.73;7.78;;;11.00;64.60;;;;;;6125781;23;20006;-56
2021/12/14 09:21:19;;;;;;;12.98;7.82;;;11.00;64.50;;;;;;6124796;23;19998;-54
2021/12/14 09:23:47;;;;;;;;;;;11.00;64.40;;;;;;6091062;23;20006;-55
2021/12/14 09:26:21;;;;;;;11.27;7.22;;;11.10;64.60;;;;;;6114216;23;19912;-54
2021/12/14 09:28:48;;;;;;;12.18;7.55;;;11.10;64.30;;;;;;6115820;23;20450;-56
2021/12/14 09:31:19;;;;;;;13.40;7.88;;;11.10;64.30;;;;;;6114734;23;20003;-57
2021/12/14 09:33:48;;;;;;;12.75;7.57;;;11.10;64.40;;;;;;6124335;23;20005;-53
2021/12/14 09:36:15;;;;;;;14.05;7.72;;;11.10;64.50;;;;;;6115117;23;20005;-55
2021/12/14 09:38:48;;;;;;;14.68;8.20;;;11.20;64.60;;;;;;6112745;23;20002;-53
2021/12/14 09:41:19;;;;;;;14.98;7.72;;;11.20;64.50;;;;;;6124531;23;20444;-54
2021/12/14 09:43:47;;;;;;;17.05;8.27;;;11.20;64.60;;;;;;6115230;23;20748;-55
2021/12/14 09:46:15;;;;;;;14.45;8.65;;;11.20;64.50;;;;;;6114633;23;20009;-55
2021/12/14 09:48:47;;;;;;;14.40;8.50;;;11.20;64.40;;;;;;6115361;23;20431;-54
2021/12/14 09:51:18;;;;;;;12.85;8.25;;;11.30;64.50;;;;;;6124080;23;20013;-54
2021/12/14 09:53:50;;;;;;;13.35;8.30;;;11.30;64.40;;;;;;6122746;23;20002;-54
2021/12/14 09:56:19;;;;;;;12.73;7.93;;;11.30;64.50;;;;;;6124185;23;20013;-54
2021/12/14 09:58:50;;;;;;;12.50;7.60;;;11.30;64.50;;;;;;6112437;23;20440;-55
2021/12/14 10:01:40;;;;;;;12.43;7.88;;;11.40;64.50;;;;;;6110814;23;20009;-54
2021/12/14 10:04:21;;;;;;;12.73;7.97;;;11.40;64.40;;;;;;6113591;23;20010;-56
2021/12/14 10:06:49;;;;;;;12.98;7.75;;;11.40;64.10;;;;;;6120606;23;20421;-54
2021/12/14 10:09:27;;;;;;;16.13;7.47;;;11.40;64.10;;;;;;6114206;23;20024;-55
2021/12/14 10:12:15;;;;;;;11.45;7.18;;;11.40;63.90;;;;;;6122242;23;20006;-55
2021/12/14 10:14:43;;;;;;;13.82;8.05;;;11.40;63.80;;;;;;6121189;23;20001;-54
2021/12/14 10:17:12;;;;;;;14.18;7.78;;;11.50;63.80;;;;;;6109215;23;20002;-54
2021/12/14 10:19:40;;;;;;;13.52;7.97;;;11.50;63.70;;;;;;6110777;23;20330;-54
2021/12/14 10:22:13;;;;;;;13.95;8.18;;;11.50;63.80;;;;;;6110465;23;20002;-57
2021/12/14 10:24:40;;;;;;;17.70;7.82;;;11.50;63.70;;;;;;6120098;23;19998;-52
2021/12/14 10:27:16;;;;;;;13.13;8.35;;;11.50;63.50;;;;;;6107271;23;20462;-54
2021/12/14 10:29:43;;;;;;;16.77;8.18;;;11.50;63.20;;;;;;6105610;23;20005;-56
2021/12/14 10:39:22;;;;;;;13.45;7.93;;;11.60;63.60;;;;;;6133322;23;20068;-51
2021/12/14 10:44:42;;;;;;;12.60;7.35;;;11.60;63.40;;;;;;6122077;23;20021;-57
2021/12/14 10:47:13;;;;;;;14.00;7.63;;;11.60;63.20;;;;;;6119577;23;19997;-52
2021/12/14 10:49:40;;;;;;;13.32;7.05;;;11.70;63.00;;;;;;6113869;23;20305;-54
2021/12/14 10:52:14;;;;;;;11.20;6.50;;;11.70;63.00;;;;;;6113201;23;20014;-57
2021/12/14 10:54:47;;;;;;;11.43;7.20;;;11.60;62.70;;;;;;6121559;23;20005;-55
2021/12/14 10:57:18;;;;;;;12.63;6.72;;;11.70;62.50;;;;;;6111117;23;20001;-54
2021/12/14 10:59:49;;;;;;;13.05;6.85;;;11.70;62.40;;;;;;6121006;23;19998;-55
2021/12/14 11:02:15;;;;;;;10.98;6.93;;;11.70;62.50;;;;;;6110459;23;20006;-56
2021/12/14 11:04:56;;;;;;;14.70;8.02;;;11.70;62.50;;;;;;6112182;23;20435;-53
2021/12/14 11:07:27;;;;;;;13.20;7.32;;;11.70;62.30;;;;;;6117021;23;20002;-55
2021/12/14 11:10:16;;;;;;;11.57;7.07;;;11.70;62.40;;;;;;6062274;23;1209069;-56
2021/12/14 11:12:47;;;;;;;12.98;7.05;;;11.70;62.50;;;;;;6112808;23;20014;-54
2021/12/14 11:15:26;;;;;;;13.82;8.02;;;11.80;62.40;;;;;;6122895;23;20013;-55
2021/12/14 11:18:08;;;;;;;13.35;7.45;;;11.80;62.20;;;;;;6110850;23;20371;-54
2021/12/14 11:20:46;;;;;;;11.23;7.43;;;11.80;62.30;;;;;;6115338;23;20305;-53
2021/12/14 11:23:28;;;;;;;11.05;7.18;;;11.80;62.00;;;;;;6115645;23;20634;-52
2021/12/14 11:26:14;;;;;;;14.27;7.85;;;11.80;62.60;;;;;;6124904;23;20006;-55
2021/12/14 11:28:47;;;;;;;12.20;6.78;;;11.80;61.80;;;;;;6124587;23;20009;-50
2021/12/14 11:31:25;;;;;;;16.05;8.10;;;11.80;61.80;;;;;;6121315;23;20013;-55
2021/12/14 11:34:04;;;;;;;12.57;7.25;;;11.80;61.80;;;;;;6110421;23;20002;-57
2021/12/14 11:36:35;;;;;;;14.00;7.35;;;11.80;61.50;;;;;;6124863;23;20009;-54
2021/12/14 11:39:07;;;;;;;14.70;7.20;;;11.80;61.60;;;;;;6122130;23;19998;-53
2021/12/14 11:41:41;;;;;;;12.82;7.57;;;11.80;61.70;;;;;;6112695;23;20010;-54
2021/12/14 11:44:17;;;;;;;10.15;7.18;;;11.80;61.90;;;;;;6111350;23;20327;-55
2021/12/14 11:47:33;;;;;;;15.52;8.07;;;11.80;61.80;;;;;;6105958;23;20005;-56
2021/12/14 11:50:12;;;;;;;13.77;7.97;;;11.80;61.80;;;;;;6108148;23;20010;-55
2021/12/14 11:52:53;;;;;;;15.27;8.52;;;11.80;61.50;;;;;;6119870;23;20006;-56
2021/12/14 11:55:26;;;;;;;14.43;7.68;;;11.80;61.30;;;;;;6124238;23;20328;-54
2021/12/14 11:58:30;;;;;;;13.20;8.20;;;11.80;61.70;;;;;;6114864;23;20006;-54
2021/12/14 12:00:59;;;;;;;11.95;7.38;;;11.80;61.70;;;;;;6114735;23;20002;-53
2021/12/14 12:03:59;;;;;;;15.10;7.57;;;11.90;61.80;;;;;;6113882;23;20327;-57
2021/12/14 12:09:32;;;;;;;16.27;8.27;;;11.90;61.40;;;;;;6114917;23;20029;-54
2021/12/14 12:12:17;;;;;;;18.23;8.65;;;12.00;61.30;;;;;;6114254;23;20021;-55
2021/12/14 12:14:46;;;;;;;15.93;8.60;;;12.00;61.00;;;;;;6124653;23;20002;-52
2021/12/14 12:17:25;;;;;;;14.90;8.55;;;12.00;61.20;;;;;;6113060;23;20006;-56
2021/12/14 12:19:51;;;;;;;14.75;9.45;;;12.00;61.10;;;;;;6124668;23;20002;-50
2021/12/14 12:22:17;;;;;;;15.02;8.25;;;12.00;61.20;;;;;;6116396;23;20002;-57
2021/12/14 12:24:54;;;;;;;15.90;8.90;;;12.00;60.70;;;;;;6115841;23;20319;-57
2021/12/14 12:27:35;;;;;;;14.10;9.30;;;12.00;60.40;;;;;;6111890;23;20013;-51
2021/12/14 12:30:33;;;;;;;18.55;9.60;;;12.00;60.20;;;;;;6116604;23;20006;-54
2021/12/14 12:33:12;;;;;;;11.65;8.07;;;12.00;60.10;;;;;;6114062;23;20006;-56
2021/12/14 12:36:04;;;;;;;27.05;9.50;;;12.00;60.40;;;;;;6113899;23;20021;-57
2021/12/14 12:38:48;;;;;;;13.20;7.85;;;12.00;60.10;;;;;;6108889;23;20013;-53
2021/12/14 12:41:40;;;;;;;13.50;8.52;;;12.10;60.30;;;;;;6111949;23;20008;-51
2021/12/14 12:44:12;;;;;;;14.15;8.70;;;12.00;60.20;;;;;;6115738;23;20009;-57
2021/12/14 12:46:38;;;;;;;13.15;8.35;;;12.00;59.90;;;;;;6111619;23;20461;-54
2021/12/14 12:49:32;;;;;;;15.30;9.48;;;12.00;59.90;;;;;;6115212;23;20013;-53
2021/12/14 12:52:04;;;;;;;14.13;8.82;;;11.90;59.80;;;;;;6093512;23;20466;-56
2021/12/14 12:54:45;;;;;;;15.25;9.00;;;11.90;60.10;;;;;;6116344;23;20009;-55
2021/12/14 12:57:36;;;;;;;14.45;8.57;;;11.90;60.00;;;;;;6125684;23;20308;-54
2021/12/14 13:00:10;;;;;;;16.55;10.07;;;11.90;60.30;;;;;;6087263;23;20329;-56
2021/12/14 13:02:39;;;;;;;19.02;9.25;;;11.90;60.40;;;;;;6113009;23;20435;-52
2021/12/14 13:05:20;;;;;;;18.02;9.35;;;11.90;60.60;;;;;;6115165;23;20400;-56
2021/12/14 13:08:21;;;;;;;18.00;9.25;;;11.90;60.50;;;;;;6115353;23;19998;-53
2021/12/14 13:10:47;;;;;;;19.33;9.32;;;11.90;60.70;;;;;;6105375;23;20009;-56
2021/12/14 13:13:22;;;;;;;18.08;9.38;;;12.00;60.60;;;;;;6115550;23;20380;-53
2021/12/14 13:15:55;;;;;;;15.52;9.40;;;12.00;60.40;;;;;;6112458;23;20272;-54
2021/12/14 13:18:31;;;;;;;14.77;8.38;;;12.00;60.30;;;;;;6111714;23;20002;-53
2021/12/14 13:21:07;;;;;;;16.02;9.68;;;12.00;60.30;;;;;;6126222;23;20002;-55
2021/12/14 13:23:43;;;;;;;14.52;9.00;;;12.00;60.10;;;;;;6126676;23;20609;-54
2021/12/14 13:26:32;;;;;;;16.15;8.57;;;12.00;60.20;;;;;;6112413;23;20010;-54
2021/12/14 13:29:25;;;;;;;16.95;9.18;;;12.00;60.00;;;;;;6125396;23;20204;-52
2021/12/14 13:31:55;;;;;;;14.65;8.27;;;12.00;60.00;;;;;;6121960;23;20115;-51
2021/12/14 13:35:02;;;;;;;14.15;8.82;;;12.10;60.10;;;;;;6114784;23;20009;-56
2021/12/14 13:37:39;;;;;;;16.48;9.05;;;12.10;60.10;;;;;;6112375;23;20014;-57
2021/12/14 13:40:11;;;;;;;18.95;10.60;;;12.10;60.10;;;;;;6123124;23;19998;-54
2021/12/14 13:42:56;;;;;;;22.25;10.55;;;12.10;60.10;;;;;;6125811;23;20006;-52
2021/12/14 13:45:26;;;;;;;18.25;10.05;;;12.10;60.10;;;;;;6113893;23;20021;-50
2021/12/14 13:47:53;;;;;;;16.67;9.40;;;12.10;60.10;;;;;;6113880;23;20415;-54
2021/12/14 13:50:47;;;;;;;17.05;9.18;;;12.10;60.20;;;;;;6105768;23;20442;-55
2021/12/14 13:53:14;;;;;;;15.77;9.80;;;12.20;60.20;;;;;;6102739;23;20006;-57